Time;durP1;ratioP1;P1;durP2;ratioP2;P2;SDS_P1;SDS_P2;PMS_P1;PMS_P2;Temp;Humidity;BMP_temperature;BMP_pressure;BME280_temperature;BME280_humidity;BME280_pressure;Samples;Min_cycle;Max_cycle;Signal;HPM_P1;HPM_P2
2021/03/03 00:00:32;;;;;;;44.22;25.25;;;;;;;;;;4322046;33;20114;-96
2021/03/03 00:03:00;;;;;;;47.88;30.33;;;;;;;;;;4327822;33;20048;-95
2021/03/03 00:05:28;;;;;;;43.47;30.92;;;;;;;;;;4332722;33;20060;-95
2021/03/03 00:07:56;;;;;;;46.65;29.12;;;;;;;;;;4313992;33;20064;-94
2021/03/03 00:10:25;;;;;;;49.35;28.55;;;;;;;;;;4332774;33;20110;-94
2021/03/03 00:12:53;;;;;;;49.95;31.08;;;;;;;;;;4340544;33;20065;-95
2021/03/03 00:15:21;;;;;;;44.67;26.67;;;;;;;;;;4315427;33;20070;-96
2021/03/03 00:17:49;;;;;;;36.45;15.77;;;;;;;;;;4313004;33;20878;-94
2021/03/03 00:20:18;;;;;;;36.40;9.20;;;;;;;;;;4317553;33;20121;-96
2021/03/03 00:22:46;;;;;;;30.55;8.15;;;;;;;;;;4324725;33;20089;-96
2021/03/03 00:25:14;;;;;;;31.10;7.55;;;;;;;;;;4310489;33;20072;-94
2021/03/03 00:27:42;;;;;;;29.48;7.72;;;;;;;;;;4338332;33;20061;-96
2021/03/03 00:30:15;;;;;;;29.98;8.05;;;;;;;;;;4319428;33;20060;-96
2021/03/03 00:32:44;;;;;;;29.20;7.82;;;;;;;;;;4327103;33;20056;-95
2021/03/03 00:35:13;;;;;;;37.00;7.82;;;;;;;;;;4344224;32;20444;-96
2021/03/03 00:37:41;;;;;;;31.80;7.97;;;;;;;;;;4341390;33;20448;-96
2021/03/03 00:40:10;;;;;;;32.58;8.60;;;;;;;;;;4320496;33;20168;-96
2021/03/03 00:42:38;;;;;;;29.37;9.52;;;;;;;;;;4330202;33;20080;-92
2021/03/03 00:45:07;;;;;;;32.70;9.43;;;;;;;;;;4315530;33;20130;-96
2021/03/03 00:47:35;;;;;;;36.05;8.43;;;;;;;;;;4328992;33;20413;-96
2021/03/03 00:50:04;;;;;;;35.60;8.30;;;;;;;;;;4331355;33;20051;-96
2021/03/03 00:52:33;;;;;;;28.98;7.32;;;;;;;;;;4318594;33;20102;-95
2021/03/03 00:55:05;;;;;;;33.70;7.57;;;;;;;;;;4316781;33;20079;-95
2021/03/03 00:57:35;;;;;;;32.83;7.75;;;;;;;;;;4316709;33;20585;-95
2021/03/03 01:00:14;;;;;;;30.48;7.35;;;;;;;;;;4330556;33;20078;-96
2021/03/03 01:02:43;;;;;;;25.17;7.00;;;;;;;;;;4316997;33;20064;-95
2021/03/03 01:05:16;;;;;;;27.92;8.07;;;;;;;;;;4312889;33;20087;-96
2021/03/03 01:07:45;;;;;;;23.08;7.45;;;;;;;;;;4315090;33;20084;-95
2021/03/03 01:10:16;;;;;;;23.62;7.07;;;;;;;;;;4326346;33;20048;-95
2021/03/03 01:12:46;;;;;;;28.52;9.05;;;;;;;;;;4311405;33;20087;-96
2021/03/03 01:15:20;;;;;;;;;;;;;;;;;;4312867;33;20059;-95
2021/03/03 01:17:48;;;;;;;57.10;48.05;;;;;;;;;;4319504;33;19942;-95
2021/03/03 01:20:21;;;;;;;50.45;39.15;;;;;;;;;;4329857;33;20074;-95
2021/03/03 01:22:49;;;;;;;23.95;6.57;;;;;;;;;;4330586;33;20078;-96
2021/03/03 01:25:18;;;;;;;30.35;7.03;;;;;;;;;;4316384;33;20056;-94
2021/03/03 01:27:50;;;;;;;27.83;6.85;;;;;;;;;;4339491;33;20029;-96
2021/03/03 01:30:19;;;;;;;23.30;6.43;;;;;;;;;;4338752;33;20036;-95
2021/03/03 01:32:49;;;;;;;28.92;7.10;;;;;;;;;;4317909;33;20066;-94
2021/03/03 01:35:20;;;;;;;51.90;41.90;;;;;;;;;;4313928;33;20118;-95
2021/03/03 01:37:58;;;;;;;26.42;7.65;;;;;;;;;;4309628;33;20194;-96
2021/03/03 01:40:30;;;;;;;34.65;7.75;;;;;;;;;;4317391;33;20139;-95
2021/03/03 01:43:01;;;;;;;28.08;7.03;;;;;;;;;;4310796;33;20064;-96
2021/03/03 01:45:32;;;;;;;29.58;7.55;;;;;;;;;;4315112;33;20104;-94
2021/03/03 01:48:07;;;;;;;32.15;7.12;;;;;;;;;;4328151;33;20066;-94
2021/03/03 01:50:39;;;;;;;30.75;7.68;;;;;;;;;;4318430;33;20043;-96
2021/03/03 01:53:09;;;;;;;34.63;15.98;;;;;;;;;;4318419;33;20052;-95
2021/03/03 01:55:41;;;;;;;24.67;6.93;;;;;;;;;;4320368;33;20044;-95
2021/03/03 01:58:10;;;;;;;25.35;7.20;;;;;;;;;;4316375;33;20087;-96
2021/03/03 02:00:41;;;;;;;47.95;36.05;;;;;;;;;;4328272;33;20103;-95
2021/03/03 02:03:10;;;;;;;39.83;21.95;;;;;;;;;;4331169;33;20049;-94
2021/03/03 02:05:38;;;;;;;27.25;8.07;;;;;;;;;;4322734;33;20447;-94
2021/03/03 02:08:11;;;;;;;29.00;7.35;;;;;;;;;;4313312;33;20071;-95
2021/03/03 02:10:44;;;;;;;33.38;7.68;;;;;;;;;;4313476;33;20060;-95
2021/03/03 02:13:21;;;;;;;22.48;6.93;;;;;;;;;;4312987;33;20107;-95
2021/03/03 02:15:50;;;;;;;25.50;6.62;;;;;;;;;;4318935;33;20125;-96
2021/03/03 02:18:43;;;;;;;20.17;6.72;;;;;;;;;;4315501;33;20052;-95
2021/03/03 02:21:19;;;;;;;34.00;7.28;;;;;;;;;;4323175;33;20138;-96
2021/03/03 02:23:57;;;;;;;28.73;7.45;;;;;;;;;;4324221;33;20097;-95
2021/03/03 02:26:33;;;;;;;31.42;7.35;;;;;;;;;;4333136;33;20119;-95
2021/03/03 02:29:03;;;;;;;32.00;7.75;;;;;;;;;;4320231;33;20076;-95
2021/03/03 02:31:43;;;;;;;28.40;7.47;;;;;;;;;;4320749;33;20052;-95
2021/03/03 02:34:15;;;;;;;29.65;7.05;;;;;;;;;;4324195;33;20071;-95
2021/03/03 02:36:47;;;;;;;23.35;6.85;;;;;;;;;;4313725;33;20091;-96
2021/03/03 02:39:21;;;;;;;37.25;7.95;;;;;;;;;;4327227;33;20123;-95
2021/03/03 02:41:52;;;;;;;24.67;7.65;;;;;;;;;;4327250;33;20420;-96
2021/03/03 02:44:22;;;;;;;26.25;7.50;;;;;;;;;;4324930;33;20262;-96
2021/03/03 02:46:54;;;;;;;27.13;7.53;;;;;;;;;;4325537;33;20712;-96
2021/03/03 02:49:24;;;;;;;31.00;7.68;;;;;;;;;;4316434;33;20115;-95
2021/03/03 02:51:53;;;;;;;36.20;7.50;;;;;;;;;;4315784;33;20109;-96
2021/03/03 02:54:27;;;;;;;27.52;7.40;;;;;;;;;;4315446;33;20077;-95
2021/03/03 02:57:00;;;;;;;29.75;11.05;;;;;;;;;;4311879;33;20067;-95
2021/03/03 02:59:28;;;;;;;35.10;9.65;;;;;;;;;;4340597;33;20105;-96
2021/03/03 03:02:03;;;;;;;30.42;13.13;;;;;;;;;;4320051;33;20079;-94
2021/03/03 03:04:38;;;;;;;28.75;7.97;;;;;;;;;;4313976;33;20100;-96
2021/03/03 03:07:11;;;;;;;52.78;36.72;;;;;;;;;;4328360;33;20052;-96
2021/03/03 03:09:40;;;;;;;64.05;46.40;;;;;;;;;;4316507;33;20040;-95
2021/03/03 03:12:12;;;;;;;37.10;24.52;;;;;;;;;;4318670;33;20051;-94
2021/03/03 03:14:46;;;;;;;53.85;29.23;;;;;;;;;;4339923;33;20381;-96
2021/03/03 03:17:17;;;;;;;54.92;33.95;;;;;;;;;;4328417;33;20542;-96
2021/03/03 03:19:57;;;;;;;50.17;36.17;;;;;;;;;;4319790;33;20409;-94
2021/03/03 03:22:26;;;;;;;49.83;37.60;;;;;;;;;;4328147;33;20095;-94
2021/03/03 03:24:59;;;;;;;;;;;;;;;;;;4333150;33;20109;-93
2021/03/03 03:27:32;;;;;;;44.80;34.08;;;;;;;;;;4344035;33;19955;-94
2021/03/03 03:30:07;;;;;;;37.97;21.75;;;;;;;;;;4330670;33;20090;-96
2021/03/03 03:32:36;;;;;;;27.13;13.82;;;;;;;;;;4339024;32;20092;-94
2021/03/03 03:35:15;;;;;;;38.22;21.15;;;;;;;;;;4322488;33;20073;-95
2021/03/03 03:37:46;;;;;;;44.15;22.08;;;;;;;;;;4328133;33;20120;-96
2021/03/03 03:40:14;;;;;;;38.60;24.10;;;;;;;;;;4316494;33;20456;-96
2021/03/03 03:42:49;;;;;;;44.35;27.08;;;;;;;;;;4319405;33;20094;-95
2021/03/03 03:45:20;;;;;;;44.90;30.70;;;;;;;;;;4319420;33;20051;-95
2021/03/03 03:48:04;;;;;;;31.98;17.70;;;;;;;;;;4319405;33;20092;-95
2021/03/03 03:50:35;;;;;;;42.75;24.33;;;;;;;;;;4328092;33;20080;-94
2021/03/03 03:53:06;;;;;;;42.60;30.27;;;;;;;;;;4319593;33;20113;-96
2021/03/03 03:55:38;;;;;;;54.00;34.38;;;;;;;;;;4320589;33;20113;-96
2021/03/03 03:58:09;;;;;;;45.93;28.23;;;;;;;;;;4328712;33;20105;-95
2021/03/03 04:00:44;;;;;;;41.05;20.20;;;;;;;;;;4314747;33;20204;-95
2021/03/03 04:03:13;;;;;;;45.42;31.85;;;;;;;;;;4331006;33;20090;-96
2021/03/03 04:05:47;;;;;;;36.88;12.13;;;;;;;;;;4318280;33;20087;-95
2021/03/03 04:08:19;;;;;;;58.10;44.42;;;;;;;;;;4336503;33;20087;-95
2021/03/03 04:10:50;;;;;;;54.83;47.00;;;;;;;;;;4337785;33;20128;-96
2021/03/03 04:13:25;;;;;;;36.67;24.25;;;;;;;;;;4339171;33;20061;-95
2021/03/03 04:15:55;;;;;;;45.22;19.15;;;;;;;;;;4318473;33;20070;-95
2021/03/03 04:18:40;;;;;;;47.65;38.38;;;;;;;;;;4326230;33;20135;-96
2021/03/03 04:21:09;;;;;;;61.78;46.85;;;;;;;;;;4334645;33;20064;-96
2021/03/03 04:23:42;;;;;;;53.20;46.22;;;;;;;;;;4320835;33;20056;-96
2021/03/03 04:26:10;;;;;;;52.62;42.00;;;;;;;;;;4320895;33;20047;-95
2021/03/03 04:28:42;;;;;;;55.38;42.78;;;;;;;;;;4319695;33;20060;-95
2021/03/03 04:31:13;;;;;;;36.72;19.40;;;;;;;;;;4311491;33;20048;-96
2021/03/03 04:33:50;;;;;;;45.72;32.78;;;;;;;;;;4327114;33;20393;-95
2021/03/03 04:36:39;;;;;;;57.90;37.53;;;;;;;;;;4317014;33;20068;-96
2021/03/03 04:39:10;;;;;;;54.97;40.33;;;;;;;;;;4317386;33;20107;-95
2021/03/03 04:41:41;;;;;;;26.33;12.35;;;;;;;;;;4330434;33;20445;-95
2021/03/03 04:44:14;;;;;;;64.05;52.33;;;;;;;;;;4331308;33;20045;-94
2021/03/03 04:46:42;;;;;;;27.67;6.90;;;;;;;;;;4318415;33;20083;-96
2021/03/03 04:49:18;;;;;;;27.98;8.20;;;;;;;;;;4317974;33;20064;-95
2021/03/03 04:51:51;;;;;;;49.05;35.60;;;;;;;;;;4316513;33;20087;-95
2021/03/03 04:54:26;;;;;;;48.87;37.38;;;;;;;;;;4316378;33;20141;-94
2021/03/03 04:56:54;;;;;;;40.35;26.40;;;;;;;;;;4317778;33;20701;-93
2021/03/03 04:59:26;;;;;;;53.53;40.58;;;;;;;;;;4314360;33;20452;-94
2021/03/03 05:02:03;;;;;;;32.95;7.93;;;;;;;;;;4318132;33;20474;-94
2021/03/03 05:04:33;;;;;;;27.35;7.43;;;;;;;;;;4318996;33;20526;-95
2021/03/03 05:07:04;;;;;;;29.12;7.57;;;;;;;;;;4321025;33;20114;-95
2021/03/03 05:09:33;;;;;;;24.92;7.07;;;;;;;;;;4325207;33;20129;-95
2021/03/03 05:12:04;;;;;;;32.78;8.00;;;;;;;;;;4336331;33;20187;-96
2021/03/03 05:14:33;;;;;;;31.25;7.93;;;;;;;;;;4318422;33;20064;-96
2021/03/03 05:17:04;;;;;;;45.90;8.65;;;;;;;;;;4314081;33;20055;-95
2021/03/03 05:19:37;;;;;;;31.17;7.72;;;;;;;;;;4325943;33;20052;-95
2021/03/03 05:22:08;;;;;;;30.95;8.18;;;;;;;;;;4313442;33;20056;-96
2021/03/03 05:24:43;;;;;;;30.20;7.75;;;;;;;;;;4310048;33;20056;-96
2021/03/03 05:27:12;;;;;;;40.53;8.82;;;;;;;;;;4330326;33;20821;-94
2021/03/03 05:29:43;;;;;;;35.10;8.18;;;;;;;;;;4317565;33;20082;-95
2021/03/03 05:32:13;;;;;;;35.95;9.15;;;;;;;;;;4315462;33;20065;-94
2021/03/03 05:34:45;;;;;;;40.40;8.27;;;;;;;;;;4328949;33;20053;-95
2021/03/03 05:37:16;;;;;;;34.75;8.57;;;;;;;;;;4327637;33;20179;-94
2021/03/03 05:39:45;;;;;;;33.45;8.95;;;;;;;;;;4314416;33;20059;-95
2021/03/03 05:42:17;;;;;;;31.20;8.73;;;;;;;;;;4327425;33;20048;-96
2021/03/03 05:44:46;;;;;;;31.90;8.35;;;;;;;;;;4337022;33;20064;-95
2021/03/03 05:47:21;;;;;;;40.12;8.65;;;;;;;;;;4317425;33;20048;-93
2021/03/03 05:49:58;;;;;;;35.85;9.35;;;;;;;;;;4324657;33;20536;-95
2021/03/03 05:52:30;;;;;;;36.70;9.55;;;;;;;;;;4317382;33;20147;-94
2021/03/03 05:55:00;;;;;;;38.95;9.43;;;;;;;;;;4331224;33;20473;-96
2021/03/03 05:57:36;;;;;;;41.10;10.95;;;;;;;;;;4314063;33;20080;-95
2021/03/03 06:00:08;;;;;;;37.85;9.48;;;;;;;;;;4319567;33;20113;-95
2021/03/03 06:02:49;;;;;;;27.02;9.00;;;;;;;;;;4332433;33;20102;-93
2021/03/03 06:05:25;;;;;;;27.10;8.18;;;;;;;;;;4320831;33;20068;-95
2021/03/03 06:07:54;;;;;;;46.97;20.55;;;;;;;;;;4341152;32;20048;-96
2021/03/03 06:10:24;;;;;;;30.45;9.10;;;;;;;;;;4321400;33;20101;-94
2021/03/03 06:13:00;;;;;;;35.83;9.37;;;;;;;;;;4319360;33;20078;-95
2021/03/03 06:15:45;;;;;;;44.08;9.23;;;;;;;;;;4329275;33;20105;-96
2021/03/03 06:18:19;;;;;;;35.10;8.68;;;;;;;;;;4329908;33;20056;-95
2021/03/03 06:20:58;;;;;;;33.22;10.73;;;;;;;;;;4319334;33;20048;-95
2021/03/03 06:23:29;;;;;;;55.50;33.30;;;;;;;;;;4316895;33;20095;-95
2021/03/03 06:26:00;;;;;;;46.53;15.15;;;;;;;;;;4319053;33;20111;-95
2021/03/03 06:28:33;;;;;;;41.28;16.02;;;;;;;;;;4329641;33;20126;-95
2021/03/03 06:31:25;;;;;;;47.47;15.38;;;;;;;;;;4322682;33;20630;-94
2021/03/03 06:34:14;;;;;;;36.92;15.73;;;;;;;;;;4321877;33;20106;-95
2021/03/03 06:36:48;;;;;;;40.45;17.12;;;;;;;;;;4316391;33;20044;-96
2021/03/03 06:39:32;;;;;;;46.25;24.05;;;;;;;;;;4317597;33;20082;-96
2021/03/03 06:42:08;;;;;;;31.30;9.50;;;;;;;;;;4321162;33;20039;-95
2021/03/03 06:44:54;;;;;;;53.25;37.25;;;;;;;;;;4341246;33;20052;-96
2021/03/03 06:47:25;;;;;;;67.03;39.55;;;;;;;;;;4330188;33;20044;-95
2021/03/03 06:50:13;;;;;;;61.67;42.25;;;;;;;;;;4318509;33;20135;-96
2021/03/03 06:52:47;;;;;;;72.95;55.10;;;;;;;;;;4316828;33;20094;-95
2021/03/03 06:55:15;;;;;;;67.30;54.10;;;;;;;;;;4319746;33;20131;-94
2021/03/03 06:57:43;;;;;;;74.45;62.50;;;;;;;;;;4317342;33;20103;-96
2021/03/03 07:00:16;;;;;;;82.68;62.85;;;;;;;;;;4319625;33;20043;-94
2021/03/03 07:02:45;;;;;;;67.60;45.80;;;;;;;;;;4328526;33;20044;-95
2021/03/03 07:05:18;;;;;;;55.85;26.98;;;;;;;;;;4319493;33;20155;-96
2021/03/03 07:08:05;;;;;;;50.63;29.40;;;;;;;;;;4330535;33;20153;-94
2021/03/03 07:10:39;;;;;;;44.80;26.37;;;;;;;;;;4319435;33;20040;-95
2021/03/03 07:13:39;;;;;;;52.08;30.67;;;;;;;;;;4324791;33;20064;-95
2021/03/03 07:16:17;;;;;;;47.55;25.45;;;;;;;;;;4330686;33;20087;-96
2021/03/03 07:18:48;;;;;;;37.92;22.70;;;;;;;;;;4329380;33;20048;-96
2021/03/03 07:21:36;;;;;;;62.80;44.13;;;;;;;;;;4332906;33;20056;-95
2021/03/03 07:24:05;;;;;;;73.55;54.22;;;;;;;;;;4331944;33;20416;-96
2021/03/03 07:26:39;;;;;;;49.92;33.15;;;;;;;;;;4319299;33;20059;-96
2021/03/03 07:29:08;;;;;;;65.30;44.50;;;;;;;;;;4319311;33;20098;-96
2021/03/03 07:31:49;;;;;;;62.13;45.20;;;;;;;;;;4332440;33;20109;-95
2021/03/03 07:34:21;;;;;;;49.20;29.83;;;;;;;;;;4329091;33;20434;-96
2021/03/03 07:36:52;;;;;;;51.15;32.42;;;;;;;;;;4328689;33;20070;-95
2021/03/03 07:39:25;;;;;;;64.30;43.53;;;;;;;;;;4317492;33;20090;-96
2021/03/03 07:41:58;;;;;;;63.78;47.22;;;;;;;;;;4316137;33;20060;-96
2021/03/03 07:44:31;;;;;;;76.10;62.62;;;;;;;;;;4327238;33;20091;-95
2021/03/03 07:47:03;;;;;;;43.95;13.77;;;;;;;;;;4314869;33;20095;-96
2021/03/03 07:49:45;;;;;;;41.15;19.08;;;;;;;;;;4333819;33;20784;-95
2021/03/03 07:52:14;;;;;;;37.15;8.77;;;;;;;;;;4331893;33;20059;-93
2021/03/03 07:54:44;;;;;;;27.92;8.52;;;;;;;;;;4330931;33;20055;-95
2021/03/03 07:57:14;;;;;;;31.23;8.65;;;;;;;;;;4316140;33;20053;-95
2021/03/03 07:59:46;;;;;;;31.35;7.97;;;;;;;;;;4314908;33;20130;-95
2021/03/03 08:02:16;;;;;;;29.95;9.07;;;;;;;;;;4324240;33;20121;-96
2021/03/03 08:04:51;;;;;;;38.30;10.68;;;;;;;;;;4328930;33;20081;-96
2021/03/03 08:07:26;;;;;;;37.20;9.38;;;;;;;;;;4319276;33;20903;-96
2021/03/03 08:10:16;;;;;;;37.15;20.88;;;;;;;;;;4316513;33;20112;-95
2021/03/03 08:13:06;;;;;;;28.62;13.75;;;;;;;;;;4328795;32;20554;-95
2021/03/03 08:15:50;;;;;;;32.45;18.58;;;;;;;;;;4331341;33;20086;-96
2021/03/03 08:18:22;;;;;;;40.08;22.23;;;;;;;;;;4313857;33;20060;-94
2021/03/03 08:20:52;;;;;;;23.60;6.28;;;;;;;;;;4323406;33;20098;-94
2021/03/03 08:23:31;;;;;;;28.13;7.13;;;;;;;;;;4338879;32;20429;-95
2021/03/03 08:26:03;;;;;;;24.23;6.10;;;;;;;;;;4335019;32;20410;-93
2021/03/03 08:28:36;;;;;;;27.83;5.80;;;;;;;;;;4310391;33;20075;-93
2021/03/03 08:31:08;;;;;;;28.92;6.22;;;;;;;;;;4326137;33;20114;-96
2021/03/03 08:33:40;;;;;;;26.62;7.68;;;;;;;;;;4336618;32;20100;-96
2021/03/03 08:36:20;;;;;;;32.70;22.95;;;;;;;;;;4325937;33;20590;-96
2021/03/03 08:38:55;;;;;;;30.48;16.58;;;;;;;;;;4324379;33;20092;-96
2021/03/03 08:41:26;;;;;;;19.27;5.95;;;;;;;;;;4332763;33;20059;-95
2021/03/03 08:44:03;;;;;;;22.75;6.87;;;;;;;;;;4322094;33;20111;-93
2021/03/03 08:46:34;;;;;;;23.35;8.27;;;;;;;;;;4326345;33;20651;-94
2021/03/03 08:49:02;;;;;;;27.65;5.37;;;;;;;;;;4326193;33;20048;-95
2021/03/03 08:51:42;;;;;;;21.05;5.30;;;;;;;;;;4319666;33;20086;-93
2021/03/03 08:54:20;;;;;;;22.67;5.60;;;;;;;;;;4315004;33;20060;-95
2021/03/03 08:56:52;;;;;;;23.75;5.47;;;;;;;;;;4311818;33;20090;-94
2021/03/03 08:59:33;;;;;;;18.37;4.97;;;;;;;;;;4317281;33;20044;-96
2021/03/03 09:02:08;;;;;;;16.85;5.00;;;;;;;;;;4327937;33;20118;-95
2021/03/03 09:04:44;;;;;;;17.05;5.07;;;;;;;;;;4312954;33;20113;-95
2021/03/03 09:07:18;;;;;;;13.80;4.15;;;;;;;;;;4309264;33;20048;-94
2021/03/03 09:09:51;;;;;;;23.58;4.93;;;;;;;;;;4314601;33;20115;-94
2021/03/03 09:12:21;;;;;;;23.75;5.50;;;;;;;;;;4314841;33;20052;-95
2021/03/03 09:14:51;;;;;;;16.85;5.45;;;;;;;;;;4312471;33;20085;-94
2021/03/03 09:17:27;;;;;;;18.73;5.45;;;;;;;;;;4322606;33;20073;-94
2021/03/03 09:20:00;;;;;;;20.08;5.40;;;;;;;;;;4308109;33;20048;-95
2021/03/03 09:22:32;;;;;;;19.90;6.07;;;;;;;;;;4323114;33;20070;-95
2021/03/03 09:25:16;;;;;;;20.85;5.47;;;;;;;;;;4318060;33;20093;-95
2021/03/03 09:27:53;;;;;;;23.33;5.40;;;;;;;;;;4328973;33;20048;-95
2021/03/03 09:30:22;;;;;;;17.50;5.53;;;;;;;;;;4341341;33;20126;-96
2021/03/03 09:32:55;;;;;;;20.75;4.80;;;;;;;;;;4318691;33;20063;-95
2021/03/03 09:35:28;;;;;;;19.08;4.87;;;;;;;;;;4329489;33;20086;-94
2021/03/03 09:37:58;;;;;;;20.17;5.93;;;;;;;;;;4308531;33;20095;-96
2021/03/03 09:40:32;;;;;;;25.15;5.85;;;;;;;;;;4319891;33;20096;-94
2021/03/03 09:43:03;;;;;;;17.47;5.40;;;;;;;;;;4328537;33;20127;-94
2021/03/03 09:45:33;;;;;;;18.20;5.45;;;;;;;;;;4317301;33;20067;-94
2021/03/03 09:48:02;;;;;;;21.48;5.35;;;;;;;;;;4320444;33;20094;-94
2021/03/03 09:50:30;;;;;;;25.02;5.20;;;;;;;;;;4331955;33;20386;-94
2021/03/03 09:52:59;;;;;;;20.52;6.10;;;;;;;;;;4326963;33;20432;-94
2021/03/03 09:55:30;;;;;;;26.60;6.03;;;;;;;;;;4323379;33;20444;-93
2021/03/03 09:58:01;;;;;;;23.25;6.03;;;;;;;;;;4320327;33;20075;-95
2021/03/03 10:00:34;;;;;;;22.62;5.28;;;;;;;;;;4319719;33;20056;-95
2021/03/03 10:03:06;;;;;;;17.50;5.57;;;;;;;;;;4333076;33;20079;-94
2021/03/03 10:05:35;;;;;;;20.75;5.32;;;;;;;;;;4316495;33;20164;-94
2021/03/03 10:08:07;;;;;;;17.70;7.00;;;;;;;;;;4332415;33;20056;-94
2021/03/03 10:10:36;;;;;;;20.33;6.47;;;;;;;;;;4317235;33;20056;-94
2021/03/03 10:13:21;;;;;;;22.93;6.30;;;;;;;;;;4315194;33;20067;-94
2021/03/03 10:15:50;;;;;;;29.45;6.07;;;;;;;;;;4329232;33;20123;-94
2021/03/03 10:18:21;;;;;;;20.85;6.50;;;;;;;;;;4337590;33;20236;-95
2021/03/03 10:20:52;;;;;;;23.23;6.07;;;;;;;;;;4321330;33;20088;-95
2021/03/03 10:23:25;;;;;;;18.48;5.97;;;;;;;;;;4325962;33;20810;-94
2021/03/03 10:26:08;;;;;;;26.55;6.32;;;;;;;;;;4324390;33;20064;-94
2021/03/03 10:28:40;;;;;;;16.42;4.87;;;;;;;;;;4325342;33;20457;-94
2021/03/03 10:31:19;;;;;;;22.75;5.45;;;;;;;;;;4318120;33;20086;-95
2021/03/03 10:33:48;;;;;;;26.60;5.60;;;;;;;;;;4326805;33;20135;-94
2021/03/03 10:36:21;;;;;;;21.12;5.03;;;;;;;;;;4322840;33;20106;-95
2021/03/03 10:38:53;;;;;;;21.10;5.45;;;;;;;;;;4300888;33;20118;-93
2021/03/03 10:41:24;;;;;;;25.62;6.50;;;;;;;;;;4315252;33;20086;-94
2021/03/03 10:43:52;;;;;;;22.00;6.43;;;;;;;;;;4322101;33;20472;-93
2021/03/03 10:46:24;;;;;;;27.02;6.32;;;;;;;;;;4325745;33;20112;-96
2021/03/03 10:48:54;;;;;;;27.15;7.15;;;;;;;;;;4318895;33;20535;-96
2021/03/03 10:51:35;;;;;;;26.17;6.68;;;;;;;;;;4315332;33;20079;-95
2021/03/03 10:54:05;;;;;;;21.17;7.47;;;;;;;;;;4320291;33;20103;-95
2021/03/03 10:56:40;;;;;;;23.95;6.80;;;;;;;;;;4324259;33;20056;-95
2021/03/03 10:59:10;;;;;;;28.65;5.97;;;;;;;;;;4314186;33;20068;-94
2021/03/03 11:01:42;;;;;;;20.20;5.28;;;;;;;;;;4315995;33;20433;-94
2021/03/03 11:04:12;;;;;;;24.95;5.78;;;;;;;;;;4322453;33;20048;-93
2021/03/03 11:06:42;;;;;;;22.23;5.60;;;;;;;;;;4317188;33;20139;-94
2021/03/03 11:09:17;;;;;;;18.55;4.93;;;;;;;;;;4316044;33;20218;-94
2021/03/03 11:11:52;;;;;;;24.55;6.30;;;;;;;;;;4311619;33;20096;-94
2021/03/03 11:14:22;;;;;;;23.27;5.43;;;;;;;;;;4316281;33;20437;-95
2021/03/03 11:16:55;;;;;;;18.35;5.10;;;;;;;;;;4315569;33;20079;-94
2021/03/03 11:19:26;;;;;;;21.62;5.72;;;;;;;;;;4311875;33;20327;-94
2021/03/03 11:21:55;;;;;;;17.27;5.32;;;;;;;;;;4312765;33;20138;-94
2021/03/03 11:24:24;;;;;;;27.17;6.03;;;;;;;;;;4312743;33;20141;-94
2021/03/03 11:26:54;;;;;;;19.65;6.00;;;;;;;;;;4338395;32;20067;-94
2021/03/03 11:29:24;;;;;;;18.65;4.85;;;;;;;;;;4321276;33;20047;-94
2021/03/03 11:31:57;;;;;;;25.53;6.30;;;;;;;;;;4317808;33;20091;-94
2021/03/03 11:34:27;;;;;;;19.23;5.15;;;;;;;;;;4314465;33;20087;-94
2021/03/03 11:36:57;;;;;;;19.55;4.72;;;;;;;;;;4323997;33;20098;-95
2021/03/03 11:39:25;;;;;;;24.58;5.72;;;;;;;;;;4312503;33;20119;-95
2021/03/03 11:41:54;;;;;;;27.52;5.93;;;;;;;;;;4311991;33;20064;-94
2021/03/03 11:44:24;;;;;;;24.48;5.85;;;;;;;;;;4310928;33;20067;-94
2021/03/03 11:46:52;;;;;;;24.02;6.00;;;;;;;;;;4313393;33;20095;-94
2021/03/03 11:49:21;;;;;;;26.20;6.12;;;;;;;;;;4322234;33;20087;-94
2021/03/03 11:51:49;;;;;;;18.92;5.28;;;;;;;;;;4329019;33;20114;-96
2021/03/03 11:54:17;;;;;;;15.93;5.25;;;;;;;;;;4340454;33;20424;-94
2021/03/03 11:56:46;;;;;;;17.17;5.35;;;;;;;;;;4329232;33;20059;-95
2021/03/03 11:59:14;;;;;;;18.00;4.43;;;;;;;;;;4324216;33;20068;-94
2021/03/03 12:01:55;;;;;;;25.05;6.10;;;;;;;;;;4314576;33;20113;-93
2021/03/03 12:04:36;;;;;;;23.73;5.40;;;;;;;;;;4337024;33;20059;-93
2021/03/03 12:07:04;;;;;;;25.33;5.55;;;;;;;;;;4315647;33;20036;-93
2021/03/03 12:09:36;;;;;;;22.60;5.90;;;;;;;;;;4340590;33;20059;-94
2021/03/03 12:12:04;;;;;;;23.20;5.65;;;;;;;;;;4329614;33;20394;-93
2021/03/03 12:14:32;;;;;;;25.10;5.57;;;;;;;;;;4316973;33;20138;-93
2021/03/03 12:17:08;;;;;;;24.65;5.22;;;;;;;;;;4314344;33;20079;-94
2021/03/03 12:19:41;;;;;;;23.62;5.40;;;;;;;;;;4337570;33;20464;-95
2021/03/03 12:22:09;;;;;;;22.80;4.97;;;;;;;;;;4326040;33;20218;-95
2021/03/03 12:24:37;;;;;;;17.62;5.72;;;;;;;;;;4314550;33;20083;-95
2021/03/03 12:27:08;;;;;;;23.83;6.15;;;;;;;;;;4330107;33;20100;-95
2021/03/03 12:29:36;;;;;;;21.37;5.60;;;;;;;;;;4325597;33;20060;-94
2021/03/03 12:32:05;;;;;;;19.50;5.43;;;;;;;;;;4323946;33;20079;-95
2021/03/03 12:34:37;;;;;;;20.20;5.18;;;;;;;;;;4339666;33;20106;-95
2021/03/03 12:37:06;;;;;;;21.95;4.87;;;;;;;;;;4316160;33;20090;-95
2021/03/03 12:39:34;;;;;;;24.33;5.85;;;;;;;;;;4326814;33;20448;-94
2021/03/03 12:42:05;;;;;;;20.85;4.95;;;;;;;;;;4313986;33;20575;-94
2021/03/03 12:44:44;;;;;;;22.37;4.75;;;;;;;;;;4316059;33;20068;-94
2021/03/03 12:47:26;;;;;;;22.65;4.97;;;;;;;;;;4330215;33;20082;-96
2021/03/03 12:50:00;;;;;;;22.75;4.78;;;;;;;;;;4324004;33;20129;-96
2021/03/03 12:52:28;;;;;;;21.58;5.03;;;;;;;;;;4322040;33;20097;-96
2021/03/03 12:55:00;;;;;;;20.95;5.18;;;;;;;;;;4326707;33;20119;-95
2021/03/03 12:57:29;;;;;;;26.17;5.47;;;;;;;;;;4323956;33;20095;-95
2021/03/03 13:03:30;;;;;;;20.10;4.78;;;;;;;;;;4324226;33;20051;-94
2021/03/03 13:05:59;;;;;;;19.70;5.22;;;;;;;;;;4314488;33;20117;-94
2021/03/03 13:12:46;;;;;;;25.48;6.07;;;;;;;;;;4252580;33;20041;-94
2021/03/03 13:15:16;;;;;;;24.95;5.32;;;;;;;;;;4270206;33;20085;-95
2021/03/03 13:17:44;;;;;;;28.42;6.10;;;;;;;;;;4271320;33;20044;-93
2021/03/03 13:20:12;;;;;;;28.02;5.82;;;;;;;;;;4280456;33;20052;-95
2021/03/03 13:22:41;;;;;;;24.08;5.68;;;;;;;;;;4267321;33;20075;-94
2021/03/03 13:25:09;;;;;;;28.83;5.47;;;;;;;;;;4257226;33;20169;-95
2021/03/03 13:27:38;;;;;;;20.75;5.80;;;;;;;;;;4268583;33;20081;-94
2021/03/03 13:30:10;;;;;;;25.10;5.70;;;;;;;;;;4272297;33;20049;-94
2021/03/03 13:32:38;;;;;;;21.05;5.30;;;;;;;;;;4255824;33;20185;-94
2021/03/03 13:35:09;;;;;;;21.15;5.18;;;;;;;;;;4271672;33;20115;-95
2021/03/03 13:37:38;;;;;;;27.87;6.10;;;;;;;;;;4271968;33;20454;-94
2021/03/03 13:40:08;;;;;;;25.92;5.60;;;;;;;;;;4265231;33;20100;-94
2021/03/03 13:42:36;;;;;;;26.70;5.30;;;;;;;;;;4251978;33;20171;-95
2021/03/03 13:45:05;;;;;;;18.77;5.12;;;;;;;;;;4263548;33;20092;-93
2021/03/03 13:47:33;;;;;;;32.05;6.22;;;;;;;;;;4274787;33;20132;-96
2021/03/03 13:50:06;;;;;;;21.95;5.05;;;;;;;;;;4321344;33;20134;-94
2021/03/03 13:52:34;;;;;;;25.67;5.80;;;;;;;;;;4322662;33;20371;-93
2021/03/03 13:55:05;;;;;;;26.67;5.78;;;;;;;;;;4309292;33;20056;-94
2021/03/03 13:57:33;;;;;;;25.12;5.78;;;;;;;;;;4310381;33;20123;-94
2021/03/03 14:00:01;;;;;;;23.40;5.28;;;;;;;;;;4315834;33;20110;-94
2021/03/03 14:02:33;;;;;;;27.50;6.00;;;;;;;;;;4313179;33;20134;-96
2021/03/03 14:05:08;;;;;;;32.78;6.15;;;;;;;;;;4312085;33;20048;-95
2021/03/03 14:07:38;;;;;;;26.17;5.07;;;;;;;;;;4314570;33;20055;-95
2021/03/03 14:10:27;;;;;;;30.02;5.68;;;;;;;;;;4331656;33;20543;-95
2021/03/03 14:12:55;;;;;;;20.67;5.10;;;;;;;;;;4324428;33;20192;-96
2021/03/03 14:15:24;;;;;;;23.23;5.22;;;;;;;;;;4325347;33;20108;-95
2021/03/03 14:17:59;;;;;;;26.25;5.72;;;;;;;;;;4327076;33;20075;-95
2021/03/03 14:20:28;;;;;;;24.25;6.00;;;;;;;;;;4319029;33;20088;-94
2021/03/03 14:22:59;;;;;;;23.12;5.43;;;;;;;;;;4317292;33;20088;-94
2021/03/03 14:25:34;;;;;;;25.12;5.35;;;;;;;;;;4314525;33;20094;-95
2021/03/03 14:28:08;;;;;;;28.02;5.37;;;;;;;;;;4336995;33;20504;-95
2021/03/03 14:30:39;;;;;;;21.60;5.25;;;;;;;;;;4313912;33;20486;-95
2021/03/03 14:33:08;;;;;;;24.05;5.75;;;;;;;;;;4314157;33;20475;-95
2021/03/03 14:35:40;;;;;;;29.67;6.05;;;;;;;;;;4324965;33;20083;-96
2021/03/03 14:38:09;;;;;;;25.60;5.82;;;;;;;;;;4327661;33;20425;-95
2021/03/03 14:40:52;;;;;;;26.70;6.00;;;;;;;;;;4316288;33;20114;-95
2021/03/03 14:43:20;;;;;;;28.75;5.45;;;;;;;;;;4322895;33;20060;-94
2021/03/03 14:45:49;;;;;;;21.95;5.37;;;;;;;;;;4326197;33;20078;-95
2021/03/03 14:48:25;;;;;;;22.35;4.97;;;;;;;;;;4325810;33;20059;-94
2021/03/03 14:50:54;;;;;;;25.77;5.50;;;;;;;;;;4327373;33;20122;-95
2021/03/03 14:53:24;;;;;;;25.80;6.22;;;;;;;;;;4326082;33;20098;-96
2021/03/03 14:55:53;;;;;;;25.60;5.37;;;;;;;;;;4315051;33;20582;-94
2021/03/03 14:58:21;;;;;;;25.80;5.60;;;;;;;;;;4313209;33;20091;-95
2021/03/03 15:00:53;;;;;;;26.27;5.75;;;;;;;;;;4325099;33;20177;-96
2021/03/03 15:03:24;;;;;;;24.77;5.78;;;;;;;;;;4315007;33;20102;-95